Time;durP1;ratioP1;P1;durP2;ratioP2;P2;SDS_P1;SDS_P2;PMS_P1;PMS_P2;Temp;Humidity;BMP_temperature;BMP_pressure;BME280_temperature;BME280_humidity;BME280_pressure;Samples;Min_cycle;Max_cycle;Signal;HPM_P1;HPM_P2
2021/10/18 00:00:21;;;;;;;16.80;14.30;;;;;;;;;;4927138;29;20496;-87
2021/10/18 00:02:49;;;;;;;16.58;14.00;;;;;;;;;;4921351;29;21242;-85
2021/10/18 00:05:17;;;;;;;17.60;14.45;;;;;;;;;;4923794;29;20413;-87
2021/10/18 00:07:44;;;;;;;16.63;13.98;;;;;;;;;;4926861;29;20475;-87
2021/10/18 00:10:12;;;;;;;18.10;14.50;;;;;;;;;;4927434;29;20406;-87
2021/10/18 00:12:39;;;;;;;17.90;15.10;;;;;;;;;;4925771;29;20419;-86
2021/10/18 00:15:08;;;;;;;18.43;13.67;;;;;;;;;;4927764;29;20849;-87
2021/10/18 00:17:35;;;;;;;17.95;13.90;;;;;;;;;;4926588;29;20414;-86
2021/10/18 00:20:05;;;;;;;17.23;14.38;;;;;;;;;;4921824;29;20413;-87
2021/10/18 00:22:32;;;;;;;16.67;14.50;;;;;;;;;;4925701;29;20931;-86
2021/10/18 00:24:59;;;;;;;18.02;15.07;;;;;;;;;;4925946;29;20398;-87
2021/10/18 00:27:26;;;;;;;18.05;15.05;;;;;;;;;;4923581;29;20472;-87
2021/10/18 00:29:52;;;;;;;20.38;15.90;;;;;;;;;;4926800;29;20726;-87
2021/10/18 00:32:19;;;;;;;19.40;15.02;;;;;;;;;;4922608;29;20410;-87
2021/10/18 00:34:46;;;;;;;17.65;15.32;;;;;;;;;;4921892;29;20437;-87
2021/10/18 00:37:15;;;;;;;16.60;14.65;;;;;;;;;;4923340;29;20937;-85
2021/10/18 00:39:42;;;;;;;19.90;15.48;;;;;;;;;;4928549;29;20421;-87
2021/10/18 00:42:09;;;;;;;19.15;15.57;;;;;;;;;;4923266;29;20438;-87
2021/10/18 00:44:36;;;;;;;17.77;14.77;;;;;;;;;;4926350;29;20406;-87
2021/10/18 00:47:03;;;;;;;20.40;16.05;;;;;;;;;;4926648;29;20425;-87
2021/10/18 00:49:30;;;;;;;19.02;15.25;;;;;;;;;;4927368;29;20429;-87
2021/10/18 00:51:57;;;;;;;18.25;15.27;;;;;;;;;;4925937;29;20413;-87
2021/10/18 00:54:26;;;;;;;21.33;16.13;;;;;;;;;;4924516;29;20418;-86
2021/10/18 00:56:53;;;;;;;19.23;15.68;;;;;;;;;;4927015;29;21078;-86
2021/10/18 00:59:21;;;;;;;18.85;15.20;;;;;;;;;;4928220;29;20461;-86
2021/10/18 01:01:49;;;;;;;20.40;16.38;;;;;;;;;;4928510;29;20429;-87
2021/10/18 01:04:16;;;;;;;19.38;15.98;;;;;;;;;;4918489;29;20406;-87
2021/10/18 01:06:43;;;;;;;19.02;14.88;;;;;;;;;;4927548;29;20413;-86
2021/10/18 01:09:09;;;;;;;17.90;15.10;;;;;;;;;;4927743;29;20419;-86
2021/10/18 01:11:38;;;;;;;19.92;15.15;;;;;;;;;;4931461;29;20468;-87
2021/10/18 01:14:05;;;;;;;17.08;14.77;;;;;;;;;;4933887;29;20897;-87
2021/10/18 01:16:32;;;;;;;18.52;15.57;;;;;;;;;;4930319;29;20412;-87
2021/10/18 01:19:10;;;;;;;17.88;14.95;;;;;;;;;;4923287;29;20417;-87
2021/10/18 01:21:39;;;;;;;17.73;15.07;;;;;;;;;;4931940;29;20920;-87
2021/10/18 01:24:06;;;;;;;17.35;15.10;;;;;;;;;;4932455;29;20421;-87
2021/10/18 01:26:33;;;;;;;17.95;14.65;;;;;;;;;;4928429;29;20427;-87
2021/10/18 01:29:00;;;;;;;17.77;14.60;;;;;;;;;;4921239;29;20418;-86
2021/10/18 01:31:27;;;;;;;18.33;14.85;;;;;;;;;;4929585;29;20830;-87
2021/10/18 01:33:53;;;;;;;17.00;14.57;;;;;;;;;;4927422;29;20613;-86
2021/10/18 01:36:20;;;;;;;16.27;14.37;;;;;;;;;;4930603;29;20414;-87
2021/10/18 01:38:49;;;;;;;17.63;15.05;;;;;;;;;;4928966;29;21008;-86
2021/10/18 01:41:16;;;;;;;17.55;14.30;;;;;;;;;;4926239;29;20510;-86
2021/10/18 01:43:42;;;;;;;18.73;14.70;;;;;;;;;;4927458;29;20445;-86
2021/10/18 01:46:09;;;;;;;18.42;14.18;;;;;;;;;;4927098;29;20488;-86
2021/10/18 01:48:36;;;;;;;16.27;13.80;;;;;;;;;;4929819;29;20433;-87
2021/10/18 01:51:03;;;;;;;16.02;13.80;;;;;;;;;;4922793;29;20417;-86
2021/10/18 01:53:30;;;;;;;19.88;14.30;;;;;;;;;;4928539;29;20418;-87
2021/10/18 01:55:58;;;;;;;15.63;13.60;;;;;;;;;;4930237;29;20414;-87
2021/10/18 01:58:25;;;;;;;17.25;13.88;;;;;;;;;;4930159;29;20418;-87
2021/10/18 02:00:52;;;;;;;14.93;13.30;;;;;;;;;;4931898;29;20421;-87
2021/10/18 02:03:19;;;;;;;15.65;13.00;;;;;;;;;;4924150;29;20437;-87
2021/10/18 02:05:46;;;;;;;17.03;13.27;;;;;;;;;;4927367;28;20458;-86
2021/10/18 02:08:13;;;;;;;16.90;13.55;;;;;;;;;;4925776;29;20429;-87
2021/10/18 02:10:40;;;;;;;17.23;14.55;;;;;;;;;;4931908;29;20413;-86
2021/10/18 02:13:08;;;;;;;18.77;15.25;;;;;;;;;;4925530;29;20441;-86
2021/10/18 02:15:36;;;;;;;17.58;14.80;;;;;;;;;;4931740;29;20826;-86
2021/10/18 02:18:03;;;;;;;19.00;14.52;;;;;;;;;;4925669;29;21140;-86
2021/10/18 02:20:30;;;;;;;18.50;14.82;;;;;;;;;;4923634;29;20416;-86
2021/10/18 02:22:57;;;;;;;18.08;14.93;;;;;;;;;;4930859;29;20493;-86
2021/10/18 02:25:25;;;;;;;18.25;14.40;;;;;;;;;;4931421;29;20902;-86
2021/10/18 02:27:52;;;;;;;19.10;14.40;;;;;;;;;;4928566;29;21272;-86
2021/10/18 02:30:21;;;;;;;18.23;14.82;;;;;;;;;;4938260;28;20413;-86
2021/10/18 02:32:48;;;;;;;16.88;14.55;;;;;;;;;;4930467;29;20492;-87
2021/10/18 02:35:15;;;;;;;17.65;14.38;;;;;;;;;;4930974;29;20426;-87
2021/10/18 02:37:42;;;;;;;16.48;14.30;;;;;;;;;;4928105;29;20902;-87
2021/10/18 02:40:10;;;;;;;17.45;14.75;;;;;;;;;;4930714;29;20413;-86
2021/10/18 02:42:37;;;;;;;18.73;14.23;;;;;;;;;;4916917;29;20459;-87
2021/10/18 02:45:04;;;;;;;18.48;14.95;;;;;;;;;;4930883;29;20425;-87
2021/10/18 02:47:32;;;;;;;18.95;14.63;;;;;;;;;;4937459;29;20417;-87
2021/10/18 02:49:59;;;;;;;18.00;14.07;;;;;;;;;;4917065;29;20866;-85
2021/10/18 02:52:26;;;;;;;17.70;14.60;;;;;;;;;;4931052;29;20413;-86
2021/10/18 02:54:54;;;;;;;19.88;14.30;;;;;;;;;;4942133;29;20445;-86
2021/10/18 02:57:21;;;;;;;18.52;14.23;;;;;;;;;;4930687;29;20415;-86
2021/10/18 02:59:47;;;;;;;16.50;14.00;;;;;;;;;;4930258;29;20429;-86
2021/10/18 03:02:15;;;;;;;16.03;14.33;;;;;;;;;;4930271;29;20417;-87
2021/10/18 03:04:43;;;;;;;18.45;13.50;;;;;;;;;;4930266;29;20478;-86
2021/10/18 03:07:10;;;;;;;16.95;13.55;;;;;;;;;;4926662;29;20435;-86
2021/10/18 03:09:37;;;;;;;18.33;13.95;;;;;;;;;;4924399;29;20766;-86
2021/10/18 03:12:04;;;;;;;16.63;13.73;;;;;;;;;;4929805;29;20465;-86
2021/10/18 03:14:31;;;;;;;17.15;13.18;;;;;;;;;;4930851;29;20458;-86
2021/10/18 03:16:58;;;;;;;18.90;13.40;;;;;;;;;;4934289;29;20418;-86
2021/10/18 03:19:25;;;;;;;16.43;13.30;;;;;;;;;;4911696;29;20494;-87
2021/10/18 03:21:54;;;;;;;15.85;12.50;;;;;;;;;;4930215;29;20469;-86
2021/10/18 03:24:20;;;;;;;16.08;13.00;;;;;;;;;;4922698;29;20433;-86
2021/10/18 03:26:47;;;;;;;14.32;12.68;;;;;;;;;;4930139;29;20414;-87
2021/10/18 03:29:14;;;;;;;17.20;12.90;;;;;;;;;;4930396;29;20762;-86
2021/10/18 03:31:41;;;;;;;14.10;11.68;;;;;;;;;;4929844;29;20425;-87
2021/10/18 03:34:08;;;;;;;13.95;12.40;;;;;;;;;;4934107;29;20414;-85
2021/10/18 03:36:35;;;;;;;16.10;12.55;;;;;;;;;;4922246;29;20417;-87
2021/10/18 03:39:04;;;;;;;15.37;12.70;;;;;;;;;;4922538;29;20520;-87
2021/10/18 03:41:31;;;;;;;15.13;12.37;;;;;;;;;;4923836;29;20474;-86
2021/10/18 03:43:57;;;;;;;16.27;13.00;;;;;;;;;;4910811;29;20431;-85
2021/10/18 03:46:24;;;;;;;15.38;12.38;;;;;;;;;;4928097;29;20822;-86
2021/10/18 03:48:51;;;;;;;16.67;12.10;;;;;;;;;;4929885;29;20413;-87
2021/10/18 03:51:18;;;;;;;16.35;12.18;;;;;;;;;;4929518;29;20432;-87
2021/10/18 03:53:45;;;;;;;14.90;12.57;;;;;;;;;;4930155;29;20420;-86
2021/10/18 03:56:13;;;;;;;14.90;12.27;;;;;;;;;;4929544;29;20418;-87
2021/10/18 03:58:40;;;;;;;17.58;12.98;;;;;;;;;;4929430;29;21214;-86
2021/10/18 04:01:09;;;;;;;18.83;12.95;;;;;;;;;;4926504;29;20418;-86
2021/10/18 04:03:36;;;;;;;17.43;12.30;;;;;;;;;;4925302;29;20476;-86
2021/10/18 04:06:03;;;;;;;16.10;12.98;;;;;;;;;;4924927;29;20472;-86
2021/10/18 04:08:31;;;;;;;15.17;12.40;;;;;;;;;;4925567;29;20421;-85
2021/10/18 04:10:58;;;;;;;15.77;12.07;;;;;;;;;;4928364;29;20470;-87
2021/10/18 04:13:28;;;;;;;15.40;12.18;;;;;;;;;;4930958;29;20419;-86
2021/10/18 04:15:54;;;;;;;15.63;12.10;;;;;;;;;;4922613;29;20414;-86
2021/10/18 04:18:21;;;;;;;15.57;12.13;;;;;;;;;;4925452;29;20507;-86
2021/10/18 04:20:49;;;;;;;15.68;12.60;;;;;;;;;;4922379;29;20414;-85
2021/10/18 04:23:15;;;;;;;16.15;12.27;;;;;;;;;;4928792;29;20430;-87
2021/10/18 04:25:43;;;;;;;16.38;12.50;;;;;;;;;;4912918;29;20424;-86
2021/10/18 04:28:10;;;;;;;14.18;11.65;;;;;;;;;;4925603;29;20409;-86
2021/10/18 04:30:38;;;;;;;17.13;12.50;;;;;;;;;;4927598;29;20406;-86
2021/10/18 04:33:05;;;;;;;14.85;11.65;;;;;;;;;;4929026;29;20425;-86
2021/10/18 04:35:32;;;;;;;15.23;11.80;;;;;;;;;;4927260;29;20799;-86
2021/10/18 04:37:58;;;;;;;19.48;12.43;;;;;;;;;;4923528;29;20468;-87
2021/10/18 04:40:25;;;;;;;16.40;12.70;;;;;;;;;;4922829;29;20499;-86
2021/10/18 04:42:52;;;;;;;16.50;11.93;;;;;;;;;;4927827;29;20415;-86
2021/10/18 04:45:20;;;;;;;16.30;11.70;;;;;;;;;;4928587;29;20477;-86
2021/10/18 04:47:50;;;;;;;14.52;11.45;;;;;;;;;;4927560;29;20427;-86
2021/10/18 04:50:18;;;;;;;17.17;11.40;;;;;;;;;;4921173;29;20500;-86
2021/10/18 04:52:45;;;;;;;17.35;11.32;;;;;;;;;;4921844;29;20898;-87
2021/10/18 04:55:12;;;;;;;15.05;11.35;;;;;;;;;;4922851;29;20423;-87
2021/10/18 04:57:50;;;;;;;14.88;10.80;;;;;;;;;;4922972;29;20910;-86
2021/10/18 05:00:17;;;;;;;13.77;10.77;;;;;;;;;;4915472;29;21103;-87
2021/10/18 05:02:44;;;;;;;13.70;10.48;;;;;;;;;;4916952;29;20420;-87
2021/10/18 05:05:12;;;;;;;15.82;10.63;;;;;;;;;;4923867;29;20422;-87
2021/10/18 05:07:39;;;;;;;13.70;10.20;;;;;;;;;;4919886;29;20475;-86
2021/10/18 05:10:11;;;;;;;14.35;10.43;;;;;;;;;;4928056;29;20422;-85
2021/10/18 05:12:38;;;;;;;12.68;10.35;;;;;;;;;;4927989;29;20536;-86
2021/10/18 05:15:06;;;;;;;13.38;10.32;;;;;;;;;;4928502;29;20413;-86
2021/10/18 05:17:33;;;;;;;14.57;9.95;;;;;;;;;;4921791;29;20409;-86
2021/10/18 05:20:00;;;;;;;12.35;10.00;;;;;;;;;;4920403;29;20410;-89
2021/10/18 05:22:28;;;;;;;15.15;10.00;;;;;;;;;;4928859;29;20418;-87
2021/10/18 05:24:55;;;;;;;13.63;10.18;;;;;;;;;;4925312;29;20481;-86
2021/10/18 05:27:22;;;;;;;12.02;10.10;;;;;;;;;;4927541;29;20428;-86
2021/10/18 05:29:49;;;;;;;13.00;10.40;;;;;;;;;;4914936;29;20448;-86
2021/10/18 05:32:16;;;;;;;13.70;10.43;;;;;;;;;;4916547;29;20421;-87
2021/10/18 05:34:43;;;;;;;16.05;11.43;;;;;;;;;;4922886;29;21279;-87
2021/10/18 05:37:11;;;;;;;14.65;10.35;;;;;;;;;;4921404;29;20474;-87
2021/10/18 05:39:39;;;;;;;14.60;11.00;;;;;;;;;;4920302;29;20427;-86
2021/10/18 05:42:06;;;;;;;16.65;11.43;;;;;;;;;;4917604;29;20852;-86
2021/10/18 05:44:33;;;;;;;15.20;11.15;;;;;;;;;;4914075;29;20438;-85
2021/10/18 05:47:00;;;;;;;14.90;10.55;;;;;;;;;;4913612;29;20405;-87
2021/10/18 05:49:29;;;;;;;12.93;10.18;;;;;;;;;;4920866;29;20417;-87
2021/10/18 05:51:56;;;;;;;15.10;11.15;;;;;;;;;;4918696;29;20416;-87
2021/10/18 05:54:23;;;;;;;12.82;10.07;;;;;;;;;;4922050;29;20424;-87
2021/10/18 05:56:51;;;;;;;13.23;10.88;;;;;;;;;;4927560;29;20425;-86
2021/10/18 05:59:19;;;;;;;13.43;10.27;;;;;;;;;;4923283;29;20425;-86
2021/10/18 06:01:46;;;;;;;14.30;10.73;;;;;;;;;;4928328;29;20594;-87
2021/10/18 06:04:13;;;;;;;13.03;10.10;;;;;;;;;;4919372;29;20476;-87
2021/10/18 06:06:40;;;;;;;14.02;10.70;;;;;;;;;;4921095;29;20425;-87
2021/10/18 06:09:07;;;;;;;13.13;10.13;;;;;;;;;;4922000;29;20799;-87
2021/10/18 06:11:34;;;;;;;16.57;11.60;;;;;;;;;;4926132;29;20414;-87
2021/10/18 06:14:03;;;;;;;14.23;10.60;;;;;;;;;;4925861;29;20421;-87
2021/10/18 06:16:30;;;;;;;15.13;10.35;;;;;;;;;;4927943;29;20420;-87
2021/10/18 06:18:57;;;;;;;15.50;10.65;;;;;;;;;;4929491;29;20508;-87
2021/10/18 06:21:24;;;;;;;14.15;11.07;;;;;;;;;;4927024;29;20909;-87
2021/10/18 06:23:51;;;;;;;15.07;10.50;;;;;;;;;;4929029;29;20565;-87
2021/10/18 06:26:18;;;;;;;14.10;10.68;;;;;;;;;;4927060;29;20410;-87
2021/10/18 06:28:44;;;;;;;15.07;10.60;;;;;;;;;;4933550;29;20793;-87
2021/10/18 06:31:13;;;;;;;16.23;11.30;;;;;;;;;;4925985;29;20481;-86
2021/10/18 06:33:39;;;;;;;14.50;10.73;;;;;;;;;;4927173;29;20913;-87
2021/10/18 06:36:06;;;;;;;15.40;11.32;;;;;;;;;;4925117;29;20416;-87
2021/10/18 06:38:33;;;;;;;16.60;10.90;;;;;;;;;;4929636;29;21284;-87
2021/10/18 06:41:00;;;;;;;13.38;10.73;;;;;;;;;;4927316;29;20676;-86
2021/10/18 06:43:27;;;;;;;16.45;11.18;;;;;;;;;;4926623;29;21196;-86
2021/10/18 06:45:54;;;;;;;17.02;11.32;;;;;;;;;;4928298;29;20406;-87
2021/10/18 06:48:22;;;;;;;13.73;10.60;;;;;;;;;;4929433;29;20426;-87
2021/10/18 06:50:49;;;;;;;15.48;11.13;;;;;;;;;;4929556;29;20418;-87
2021/10/18 06:53:17;;;;;;;15.63;11.20;;;;;;;;;;4928296;29;21212;-87
2021/10/18 06:55:44;;;;;;;16.30;11.60;;;;;;;;;;4927620;29;20418;-87
2021/10/18 06:58:12;;;;;;;16.42;11.90;;;;;;;;;;4946718;29;20446;-86
2021/10/18 07:00:39;;;;;;;14.45;11.48;;;;;;;;;;4946178;29;20417;-87
2021/10/18 07:03:06;;;;;;;15.55;11.15;;;;;;;;;;4925082;29;20422;-86
2021/10/18 07:05:34;;;;;;;14.85;11.50;;;;;;;;;;4924806;29;20430;-86
2021/10/18 07:08:01;;;;;;;16.40;11.80;;;;;;;;;;4928884;29;20425;-86
2021/10/18 07:10:28;;;;;;;15.70;10.50;;;;;;;;;;4928325;29;20482;-87
2021/10/18 07:12:54;;;;;;;13.45;10.10;;;;;;;;;;4929533;29;20756;-87
2021/10/18 07:15:21;;;;;;;15.25;9.80;;;;;;;;;;4927906;29;20402;-87
2021/10/18 07:17:49;;;;;;;11.80;8.98;;;;;;;;;;4928215;29;20422;-87
2021/10/18 07:20:16;;;;;;;9.68;7.97;;;;;;;;;;4924041;29;20492;-87
2021/10/18 07:22:45;;;;;;;10.18;7.82;;;;;;;;;;4928119;29;20410;-87
2021/10/18 07:25:13;;;;;;;11.88;7.85;;;;;;;;;;4927459;29;20444;-87
2021/10/18 07:27:42;;;;;;;10.00;7.80;;;;;;;;;;4923997;29;20689;-87
2021/10/18 07:30:10;;;;;;;9.27;7.38;;;;;;;;;;4927848;29;20878;-87
2021/10/18 07:32:40;;;;;;;10.32;7.72;;;;;;;;;;4926752;29;20491;-87
2021/10/18 07:35:08;;;;;;;13.48;8.15;;;;;;;;;;4920956;29;20433;-87
2021/10/18 07:37:34;;;;;;;10.95;7.93;;;;;;;;;;4925739;29;20406;-86
2021/10/18 07:40:03;;;;;;;9.82;7.68;;;;;;;;;;4927940;29;20472;-87
2021/10/18 07:42:30;;;;;;;8.30;7.40;;;;;;;;;;4923749;29;20477;-86
2021/10/18 07:44:57;;;;;;;10.10;7.95;;;;;;;;;;4928318;29;20422;-87
2021/10/18 07:47:25;;;;;;;8.80;7.57;;;;;;;;;;4928078;29;20905;-86
2021/10/18 07:49:52;;;;;;;8.88;7.53;;;;;;;;;;4927566;29;20418;-88
2021/10/18 07:52:19;;;;;;;10.13;7.70;;;;;;;;;;4928514;29;20421;-87
2021/10/18 07:54:52;;;;;;;13.40;8.15;;;;;;;;;;4927748;29;20819;-87
2021/10/18 07:57:20;;;;;;;9.48;8.10;;;;;;;;;;4921402;29;20412;-87
2021/10/18 07:59:47;;;;;;;12.73;8.57;;;;;;;;;;4927275;29;20413;-87
2021/10/18 08:02:14;;;;;;;14.75;9.25;;;;;;;;;;4928265;29;20413;-86
2021/10/18 08:04:41;;;;;;;10.20;8.55;;;;;;;;;;4927089;29;20442;-87
2021/10/18 08:07:08;;;;;;;11.93;9.73;;;;;;;;;;4927789;29;20418;-87
2021/10/18 08:09:34;;;;;;;12.48;9.65;;;;;;;;;;4923961;29;20417;-86
2021/10/18 08:12:02;;;;;;;12.52;9.82;;;;;;;;;;4926235;29;20432;-87
2021/10/18 08:14:30;;;;;;;11.95;9.90;;;;;;;;;;4926579;29;20758;-87
2021/10/18 08:17:03;;;;;;;12.05;10.07;;;;;;;;;;4918860;29;20410;-87
2021/10/18 08:19:30;;;;;;;13.70;9.80;;;;;;;;;;4924192;29;20494;-86
2021/10/18 08:21:57;;;;;;;11.57;9.85;;;;;;;;;;4926053;29;20421;-87
2021/10/18 08:24:24;;;;;;;12.32;9.90;;;;;;;;;;4925459;29;20437;-87
2021/10/18 08:26:51;;;;;;;14.05;9.30;;;;;;;;;;4927548;29;20410;-87
2021/10/18 08:29:18;;;;;;;11.43;9.35;;;;;;;;;;4926554;29;20424;-86
2021/10/18 08:31:46;;;;;;;10.85;9.20;;;;;;;;;;4926968;29;20816;-86
2021/10/18 08:34:13;;;;;;;12.65;9.07;;;;;;;;;;4922912;29;20423;-87
2021/10/18 08:36:40;;;;;;;10.38;9.23;;;;;;;;;;4925757;29;20775;-87
2021/10/18 08:41:55;;;;;;;11.15;8.90;;;;;;;;;;4918305;29;20405;-86
2021/10/18 08:44:22;;;;;;;11.32;9.30;;;;;;;;;;4924317;29;20921;-86
2021/10/18 08:46:53;;;;;;;12.70;10.10;;;;;;;;;;4925112;29;20420;-87
2021/10/18 08:49:21;;;;;;;11.48;9.32;;;;;;;;;;4923975;28;20489;-87
2021/10/18 08:51:48;;;;;;;11.50;8.55;;;;;;;;;;4922782;29;20441;-87
2021/10/18 08:54:16;;;;;;;14.07;8.90;;;;;;;;;;4926519;29;20418;-87
2021/10/18 08:56:43;;;;;;;11.13;9.00;;;;;;;;;;4924427;29;20511;-87
2021/10/18 08:59:10;;;;;;;13.20;9.60;;;;;;;;;;4925747;29;20414;-87
2021/10/18 09:01:42;;;;;;;10.25;9.18;;;;;;;;;;4926441;29;20421;-87
2021/10/18 09:04:25;;;;;;;11.85;9.52;;;;;;;;;;4919926;29;20504;-86
2021/10/18 09:06:52;;;;;;;11.75;9.13;;;;;;;;;;4919473;29;20425;-87
2021/10/18 09:09:23;;;;;;;12.95;9.38;;;;;;;;;;4920223;29;21134;-87
2021/10/18 09:11:50;;;;;;;12.00;9.18;;;;;;;;;;4920859;29;20422;-87
2021/10/18 09:14:17;;;;;;;11.63;9.52;;;;;;;;;;4925884;29;20437;-87
2021/10/18 09:16:46;;;;;;;11.40;9.23;;;;;;;;;;4923670;29;20403;-88
2021/10/18 09:19:14;;;;;;;12.15;9.27;;;;;;;;;;4922041;29;20406;-86
2021/10/18 09:21:45;;;;;;;12.35;9.75;;;;;;;;;;4919124;29;20423;-87
2021/10/18 09:24:14;;;;;;;9.95;8.60;;;;;;;;;;4918153;29;20692;-87
2021/10/18 09:26:43;;;;;;;9.88;8.10;;;;;;;;;;4918774;29;20946;-87
2021/10/18 09:29:11;;;;;;;10.82;8.05;;;;;;;;;;4922715;29;20414;-87
2021/10/18 09:31:40;;;;;;;13.15;9.23;;;;;;;;;;4923713;29;20418;-87
2021/10/18 09:34:10;;;;;;;10.60;8.53;;;;;;;;;;4925520;29;20575;-87
2021/10/18 09:36:38;;;;;;;9.02;8.13;;;;;;;;;;4926299;29;20584;-88
2021/10/18 09:39:28;;;;;;;11.65;8.32;;;;;;;;;;4925697;29;20476;-87
2021/10/18 09:41:58;;;;;;;9.40;8.40;;;;;;;;;;4918236;29;20422;-87
2021/10/18 09:44:37;;;;;;;9.40;7.72;;;;;;;;;;4930174;29;20505;-88
2021/10/18 09:47:17;;;;;;;8.60;7.37;;;;;;;;;;4925779;29;20505;-88
2021/10/18 10:53:44;;;;;;;9.75;8.75;;;;;;;;;;4930013;29;20750;-88
2021/10/18 10:56:20;;;;;;;11.10;8.40;;;;;;;;;;4926427;29;20868;-88
2021/10/18 10:58:50;;;;;;;10.18;8.27;;;;;;;;;;4928218;29;20534;-87
2021/10/18 11:01:44;;;;;;;10.88;8.45;;;;;;;;;;4919454;29;20981;-88
2021/10/18 11:04:42;;;;;;;11.48;8.35;;;;;;;;;;4924703;29;20735;-88
2021/10/18 11:07:12;;;;;;;9.80;8.35;;;;;;;;;;4924619;29;20427;-88
2021/10/18 11:09:41;;;;;;;11.47;8.37;;;;;;;;;;4925738;29;20417;-88
2021/10/18 11:12:09;;;;;;;10.75;8.15;;;;;;;;;;4925994;29;20413;-88
2021/10/18 11:14:36;;;;;;;10.63;8.30;;;;;;;;;;4921574;29;20420;-89
2021/10/18 11:17:05;;;;;;;9.17;7.90;;;;;;;;;;4923862;29;20444;-88
2021/10/18 11:19:32;;;;;;;12.47;9.00;;;;;;;;;;4916113;29;20410;-88
2021/10/18 11:22:01;;;;;;;11.35;8.68;;;;;;;;;;4935461;28;20892;-88
2021/10/18 11:24:39;;;;;;;9.68;8.65;;;;;;;;;;4917522;29;20593;-88
2021/10/18 11:27:06;;;;;;;10.70;8.50;;;;;;;;;;4922715;29;20486;-89
2021/10/18 11:29:34;;;;;;;11.18;8.70;;;;;;;;;;4918756;29;20406;-88
2021/10/18 11:32:10;;;;;;;13.15;8.68;;;;;;;;;;4917465;29;20499;-87
2021/10/18 11:34:38;;;;;;;10.90;7.90;;;;;;;;;;4921779;29;20415;-88
2021/10/18 11:37:05;;;;;;;9.40;8.30;;;;;;;;;;4919796;29;20828;-87
2021/10/18 11:39:33;;;;;;;9.47;8.30;;;;;;;;;;4926440;29;20438;-87
2021/10/18 11:42:11;;;;;;;11.00;8.55;;;;;;;;;;4931715;29;20917;-87
2021/10/18 11:44:53;;;;;;;10.27;8.37;;;;;;;;;;4920337;29;20424;-88
2021/10/18 11:47:33;;;;;;;9.65;8.38;;;;;;;;;;4923796;29;20504;-87
2021/10/18 14:41:26;;;;;;;9.53;8.00;;;;;;;;;;6064608;23;20337;31
2021/10/18 14:49:04;;;;;;;11.65;9.85;;;;;;;;;;5007988;23;20421;-96
2021/10/18 14:51:31;;;;;;;12.65;9.82;;;;;;;;;;4971853;29;20397;-96
2021/10/18 14:54:00;;;;;;;11.10;9.80;;;;;;;;;;4959245;29;20496;-96
2021/10/18 14:56:32;;;;;;;11.50;10.15;;;;;;;;;;4961251;29;20389;-96
2021/10/18 14:58:59;;;;;;;12.43;10.10;;;;;;;;;;4958597;28;20489;-96
2021/10/18 15:01:28;;;;;;;11.82;10.02;;;;;;;;;;4960971;28;20409;-96
2021/10/18 16:46:13;;;;;;;26.10;17.35;;;;;;;;;;5465435;23;20433;-96
2021/10/18 16:48:40;;;;;;;40.78;25.38;;;;;;;;;;4974468;28;20402;-96
2021/10/18 16:51:07;;;;;;;78.00;48.42;;;;;;;;;;4974522;28;20388;-96
2021/10/18 16:56:15;;;;;;;44.78;29.63;;;;;;;;;;4947091;28;20404;-94
2021/10/18 16:58:42;;;;;;;30.35;20.90;;;;;;;;;;4939417;28;20408;-94
2021/10/18 17:01:09;;;;;;;35.28;24.05;;;;;;;;;;4938030;28;20441;-94
2021/10/18 17:03:38;;;;;;;39.45;27.73;;;;;;;;;;4939371;28;20423;-94
2021/10/18 17:06:05;;;;;;;26.23;17.70;;;;;;;;;;4945469;28;20434;-93
2021/10/18 17:08:32;;;;;;;27.02;17.38;;;;;;;;;;4945430;28;20422;-95
2021/10/18 17:10:59;;;;;;;20.75;16.10;;;;;;;;;;4942143;28;20417;-95
2021/10/18 17:13:26;;;;;;;25.30;16.77;;;;;;;;;;4943050;28;20479;-95
2021/10/18 17:15:55;;;;;;;29.38;20.33;;;;;;;;;;4950406;28;20423;-94
2021/10/18 17:18:23;;;;;;;28.15;19.55;;;;;;;;;;4950096;28;20411;-95
2021/10/18 17:20:53;;;;;;;31.23;21.83;;;;;;;;;;4942451;28;20420;-94
2021/10/18 17:23:20;;;;;;;29.17;21.05;;;;;;;;;;4951249;28;20412;-96
2021/10/18 17:25:47;;;;;;;26.52;19.00;;;;;;;;;;4948735;28;20422;-94
2021/10/18 17:28:15;;;;;;;20.63;15.90;;;;;;;;;;4941896;28;20412;-94
2021/10/18 17:30:42;;;;;;;23.80;15.35;;;;;;;;;;4954177;28;20423;-95
2021/10/18 17:33:10;;;;;;;26.75;18.83;;;;;;;;;;4943642;28;20420;-94
2021/10/18 17:35:38;;;;;;;41.53;26.88;;;;;;;;;;4947388;28;20471;-95
2021/10/18 17:38:07;;;;;;;32.77;22.03;;;;;;;;;;4938525;28;20834;-95
2021/10/18 17:40:35;;;;;;;40.58;26.10;;;;;;;;;;4939751;28;20409;-96
2021/10/18 17:43:02;;;;;;;26.20;18.05;;;;;;;;;;4943679;28;20499;-94
2021/10/18 17:45:30;;;;;;;26.77;17.57;;;;;;;;;;4947807;28;20429;-94
2021/10/18 17:47:57;;;;;;;31.05;21.55;;;;;;;;;;4947435;28;20420;-94
2021/10/18 17:50:24;;;;;;;25.20;17.70;;;;;;;;;;4945297;28;20423;-95
2021/10/18 17:52:51;;;;;;;25.33;15.93;;;;;;;;;;4944153;28;20417;-93
2021/10/18 17:55:20;;;;;;;22.92;16.52;;;;;;;;;;4949530;28;20412;-95
2021/10/18 17:57:47;;;;;;;21.83;16.73;;;;;;;;;;4960499;28;20416;-95
2021/10/18 18:00:15;;;;;;;23.80;18.02;;;;;;;;;;4949303;28;20423;-95
2021/10/18 18:02:42;;;;;;;25.27;17.48;;;;;;;;;;4943974;28;21786;-95
2021/10/18 18:05:10;;;;;;;25.25;16.92;;;;;;;;;;4952668;28;20427;-95
2021/10/18 18:07:38;;;;;;;25.48;17.40;;;;;;;;;;4947068;28;20426;-94
2021/10/18 18:10:06;;;;;;;23.75;18.10;;;;;;;;;;4953704;28;20407;-95
2021/10/18 18:12:37;;;;;;;25.55;19.10;;;;;;;;;;4946848;29;20424;-95
2021/10/18 18:15:05;;;;;;;27.55;18.73;;;;;;;;;;4945692;28;20426;-94
2021/10/18 18:17:32;;;;;;;28.20;19.25;;;;;;;;;;4948907;28;20414;-95
2021/10/18 18:20:02;;;;;;;27.40;19.60;;;;;;;;;;4942471;28;20410;-94
2021/10/18 18:22:33;;;;;;;29.03;20.57;;;;;;;;;;4953403;28;20516;-96
2021/10/18 18:25:06;;;;;;;30.40;22.13;;;;;;;;;;4952096;28;20410;-96
2021/10/18 18:27:39;;;;;;;29.25;22.35;;;;;;;;;;4946733;28;20457;-96
2021/10/18 18:30:14;;;;;;;28.60;22.17;;;;;;;;;;4962301;28;20451;-96
2021/10/18 18:32:46;;;;;;;31.83;23.25;;;;;;;;;;4969927;28;20437;-96
2021/10/18 18:45:05;;;;;;;34.60;26.47;;;;;;;;;;4957039;29;20589;-96
2021/10/18 18:51:12;;;;;;;35.22;26.30;;;;;;;;;;4943591;29;20398;-96
2021/10/18 18:56:33;;;;;;;31.65;25.83;;;;;;;;;;4937632;29;20418;-96
2021/10/18 18:59:13;;;;;;;35.05;26.92;;;;;;;;;;4933114;29;20426;-95
2021/10/18 19:01:52;;;;;;;32.57;26.53;;;;;;;;;;4927132;29;21002;-96
2021/10/18 19:04:40;;;;;;;35.38;26.00;;;;;;;;;;4938397;29;20977;-96
2021/10/18 19:10:51;;;;;;;34.88;27.38;;;;;;;;;;4935182;29;20489;-95
2021/10/18 19:13:45;;;;;;;37.22;26.20;;;;;;;;;;4942101;29;20818;-96
2021/10/18 19:35:00;;;;;;;33.80;24.90;;;;;;;;;;4936102;29;20413;-96
2021/10/18 19:40:53;;;;;;;30.90;24.42;;;;;;;;;;4943750;29;20430;-96
2021/10/18 19:43:55;;;;;;;31.27;24.52;;;;;;;;;;4931725;29;20448;-96
2021/10/18 19:46:26;;;;;;;32.20;24.47;;;;;;;;;;4938378;28;20464;-96
2021/10/18 19:54:49;;;;;;;31.52;23.90;;;;;;;;;;4955887;28;20434;-96
2021/10/18 19:57:24;;;;;;;31.67;24.63;;;;;;;;;;4944432;28;21122;-96
2021/10/18 20:00:05;;;;;;;29.85;23.98;;;;;;;;;;4948695;28;20463;-96
2021/10/18 20:05:28;;;;;;;31.52;24.88;;;;;;;;;;4947048;28;20392;-96
2021/10/18 20:08:03;;;;;;;31.00;24.33;;;;;;;;;;4944806;28;20442;-96
2021/10/18 20:10:31;;;;;;;32.83;25.45;;;;;;;;;;4948142;28;20651;-96
2021/10/18 20:13:03;;;;;;;32.25;25.63;;;;;;;;;;4950093;28;20416;-96
2021/10/18 20:15:32;;;;;;;33.47;25.33;;;;;;;;;;4947524;28;20420;-96
2021/10/18 20:18:16;;;;;;;31.75;24.77;;;;;;;;;;4945293;28;20417;-96
2021/10/18 20:20:44;;;;;;;32.38;25.15;;;;;;;;;;4948001;28;20453;-96
2021/10/18 20:23:15;;;;;;;32.88;26.38;;;;;;;;;;4950008;28;20420;-96
2021/10/18 20:25:44;;;;;;;32.58;24.85;;;;;;;;;;4947410;28;20443;-96
2021/10/18 20:28:13;;;;;;;32.95;24.45;;;;;;;;;;4935453;28;20427;-96
2021/10/18 20:33:31;;;;;;;32.17;25.30;;;;;;;;;;4936206;28;20439;-96
2021/10/18 20:36:02;;;;;;;34.10;26.88;;;;;;;;;;4946242;28;20479;-96
2021/10/18 20:38:29;;;;;;;32.65;26.23;;;;;;;;;;4952655;28;20521;-96
2021/10/18 20:40:59;;;;;;;33.63;25.85;;;;;;;;;;4953623;28;20515;-96
2021/10/18 20:43:30;;;;;;;33.10;26.47;;;;;;;;;;4935197;29;20515;-96
2021/10/18 20:45:58;;;;;;;34.55;25.20;;;;;;;;;;4958087;28;20442;-96
2021/10/18 20:49:01;;;;;;;33.25;25.75;;;;;;;;;;4925175;28;20437;-96
2021/10/18 20:51:42;;;;;;;33.53;26.13;;;;;;;;;;4924492;29;20429;-96
2021/10/18 20:54:22;;;;;;;33.85;26.88;;;;;;;;;;4911027;29;20484;-96
2021/10/18 20:56:50;;;;;;;32.90;25.80;;;;;;;;;;4913747;29;20432;-96
2021/10/18 20:59:19;;;;;;;32.95;25.35;;;;;;;;;;4915927;29;20498;-96
2021/10/18 21:01:47;;;;;;;33.47;26.75;;;;;;;;;;4909742;29;20442;-96
2021/10/18 21:04:16;;;;;;;35.25;27.13;;;;;;;;;;4914675;29;20511;-96
2021/10/18 21:06:47;;;;;;;32.20;25.95;;;;;;;;;;4915728;29;20430;-96
2021/10/18 21:09:17;;;;;;;33.63;25.63;;;;;;;;;;4916107;29;20514;-96
2021/10/18 21:11:45;;;;;;;34.90;26.95;;;;;;;;;;4916281;29;20928;-96